Buoy 43555

sailwx.info

Track history (hours):
 
Tides and Currents Weather Stations Pressure Air Temp Water Temp Dewpoint Dewpoint Depression Visibility Wind Speed Wind Dir Waves Ship Positions

Yuehuilaiyu43555

Last reported at 2018-Jun-20 16:30 UTC. Time now 2018-Jun-20 17:11 UTC.
Position N 30°36' W 027°44'.

Length 21 m.

Type: Fishing. MMSI: 412466967.

Water temperature 22.5 ° C

Date/timePositionNaut miles runAvg speedWind from/ knotsBaromVisibWave heightAir tempDewpointWater temp
2018-Jun-20 16:30N 30°36' W 027°44'0 0.0 22.5
2018-Jun-20 16:15N 30°36' W 027°44'2 0.7 22.5
2018-Jun-20 13:00N 30°35' W 027°42'1 0.6 22.4
2018-Jun-20 12:00N 30°34' W 027°42'0 0.0 22.4
2018-Jun-20 11:30N 30°34' W 027°42'0 0.0 22.3
2018-Jun-20 11:15N 30°34' W 027°42'1 4.1 22.3
2018-Jun-20 11:00N 30°34' W 027°41'0 0.0 22.3
2018-Jun-20 10:15N 30°34' W 027°41'0 0.0 22.3
2018-Jun-20 09:30N 30°34' W 027°41'1 4.1 22.3
2018-Jun-20 09:15N 30°34' W 027°40'0 0.0 22.3
2018-Jun-20 08:45N 30°34' W 027°40'0 0.0 22.3
2018-Jun-20 08:00N 30°34' W 027°40'1 2.1 22.3
2018-Jun-20 07:45N 30°34' W 027°39'3 2.9 22.3
2018-Jun-20 06:45N 30°37' W 027°37'2 3.7 22.3
2018-Jun-20 06:15N 30°35' W 027°38'2 1.5 22.3
2018-Jun-20 05:00N 30°37' W 027°37'1 0.1 22.3
2018-Jun-19 23:45N 30°36' W 027°37'1 2.4 22.4
2018-Jun-19 23:30N 30°37' W 027°37'1 1.0 22.4
2018-Jun-19 23:00N 30°37' W 027°37'1 2.4 22.4
2018-Jun-19 22:45N 30°36' W 027°37'0 0.0 22.4
2018-Jun-19 22:30N 30°36' W 027°37'1 1.0 22.4
2018-Jun-19 22:00N 30°36' W 027°37'0 0.0 22.4
2018-Jun-19 21:15N 30°36' W 027°37'0 0.0 22.4
2018-Jun-19 21:00N 30°36' W 027°37'1 3.2 22.4
2018-Jun-19 20:45N 30°35' W 027°37'0 0.0 22.4
2018-Jun-19 20:30N 30°35' W 027°37'1 0.5 22.4
2018-Jun-19 19:00N 30°35' W 027°36'1 3.2 22.5
2018-Jun-19 18:45N 30°35' W 027°37'1 3.2 22.5
2018-Jun-19 18:30N 30°35' W 027°36'1 2.1 22.5
2018-Jun-19 18:15N 30°35' W 027°35'0 0.0 22.5
2018-Jun-19 16:45N 30°35' W 027°35'2 8.6 22.5
2018-Jun-19 16:30N 30°34' W 027°33'0 0.0 22.5
2018-Jun-19 12:30N 30°34' W 027°33'0 0.0 22.3
2018-Jun-19 12:15N 30°34' W 027°33'1 1.0 22.3
2018-Jun-19 11:45N 30°34' W 027°32'0 0.0 22.3
2018-Jun-19 11:30N 30°34' W 027°32'1 2.1 22.3
2018-Jun-19 11:15N 30°34' W 027°32'0 0.0 22.3
2018-Jun-19 11:00N 30°34' W 027°32'1 2.1 22.3
2018-Jun-19 10:45N 30°34' W 027°31'0 0.0 22.3
2018-Jun-19 10:30N 30°34' W 027°31'0 0.0 22.3
2018-Jun-19 10:00N 30°34' W 027°31'1 1.2 22.3
2018-Jun-19 09:30N 30°34' W 027°31'0 0.0 22.2
2018-Jun-19 09:15N 30°34' W 027°31'0 0.0 22.2
2018-Jun-19 08:30N 30°34' W 027°31'1 4.8 22.2
2018-Jun-19 08:15N 30°34' W 027°30'0 0.0 22.2
2018-Jun-19 07:45N 30°34' W 027°30'0 0.0 22.2
2018-Jun-19 07:30N 30°34' W 027°30'0 0.0 22.2
2018-Jun-19 07:00N 30°34' W 027°30'1 2.1 22.2
2018-Jun-19 06:45N 30°34' W 027°29'1 0.5 22.2
2018-Jun-19 05:15N 30°35' W 027°29'1 0.1 22.3
2018-Jun-19 00:00N 30°35' W 027°28'1 0.8 22.3
2018-Jun-18 23:15N 30°34' W 027°28'0 0.0 22.3
2018-Jun-18 22:45N 30°34' W 027°28'0 0.0 22.3
2018-Jun-18 22:30N 30°34' W 027°28'1 2.1 22.3
2018-Jun-18 22:15N 30°34' W 027°29'0 0.0 22.3
2018-Jun-18 21:45N 30°34' W 027°29'0 0.0 22.3
2018-Jun-18 21:30N 30°34' W 027°29'0 0.0 22.3
2018-Jun-18 21:15N 30°34' W 027°29'1 3.2 22.3
2018-Jun-18 21:00N 30°34' W 027°28'0 0.0 22.3
2018-Jun-18 19:45N 30°34' W 027°28'1 4.8 22.3
2018-Jun-18 19:30N 30°33' W 027°27'1 2.1 22.3
2018-Jun-18 19:15N 30°33' W 027°28'1 1.6 22.3
2018-Jun-18 18:30N 30°32' W 027°26'2 1.0 22.3
2018-Jun-18 17:00N 30°32' W 027°25'0 0.0 22.3
2018-Jun-18 16:45N 30°32' W 027°25'1 0.1 22.3
2018-Jun-18 12:45N 30°32' W 027°24'0 0.0 22.2
2018-Jun-18 12:00N 30°32' W 027°24'0 0.0 22.1
2018-Jun-18 11:30N 30°32' W 027°24'0 0.0 22.1
2018-Jun-18 11:15N 30°32' W 027°24'1 2.1 22.1
2018-Jun-18 11:00N 30°32' W 027°23'0 0.0 22.1
2018-Jun-18 10:30N 30°32' W 027°23'1 2.4 22.1
2018-Jun-18 10:15N 30°32' W 027°23'1 1.6 22.1
2018-Jun-18 09:45N 30°32' W 027°24'0 0.0 22.0
2018-Jun-18 09:30N 30°32' W 027°24'1 2.4 22.0
2018-Jun-18 09:00N 30°32' W 027°23'0 0.0 22.0
2018-Jun-18 08:45N 30°32' W 027°23'0 0.0 22.0
2018-Jun-18 08:15N 30°32' W 027°23'1 2.4 22.0
2018-Jun-18 08:00N 30°32' W 027°23'1 0.7 22.0
2018-Jun-18 07:15N 30°32' W 027°22'1 3.2 22.0
2018-Jun-18 07:00N 30°32' W 027°23'0 0.0 22.0
2018-Jun-18 05:30N 30°32' W 027°23'0 0.0 22.0
2018-Jun-18 05:15N 30°32' W 027°23'0 0.0 22.1
2018-Jun-18 00:30N 30°32' W 027°23'1 4.8 22.1
2018-Jun-18 00:15N 30°31' W 027°22'1 1.6 22.1
2018-Jun-17 23:45N 30°32' W 027°22'1 4.8 22.1
2018-Jun-17 23:30N 30°31' W 027°22'0 0.0 22.1
2018-Jun-17 23:00N 30°31' W 027°22'0 0.0 22.1
2018-Jun-17 22:45N 30°31' W 027°22'0 0.0 22.1
2018-Jun-17 22:30N 30°31' W 027°22'1 1.2 22.1
2018-Jun-17 22:00N 30°30' W 027°22'1 4.8 22.1
2018-Jun-17 21:45N 30°31' W 027°21'0 0.0 22.1
2018-Jun-17 21:30N 30°31' W 027°21'1 5.2 22.1
2018-Jun-17 21:15N 30°29' W 027°22'0 0.0 22.1
2018-Jun-17 21:00N 30°29' W 027°22'0 0.0 22.1
2018-Jun-17 20:15N 30°29' W 027°22'0 0.0 22.2
2018-Jun-17 20:00N 30°29' W 027°22'1 3.2 22.2
2018-Jun-17 19:45N 30°29' W 027°21'0 0.0 22.2
2018-Jun-17 19:30N 30°29' W 027°21'2 2.1 22.2
2018-Jun-17 18:45N 30°29' W 027°19'0 0.0 22.2
2018-Jun-17 18:30N 30°29' W 027°19'1 3.2 22.2
2018-Jun-17 18:15N 30°28' W 027°19'1 3.2 22.2
2018-Jun-17 18:00N 30°29' W 027°19'2 1.7 22.2
2018-Jun-17 17:00N 30°28' W 027°17'1 0.3 22.2
2018-Jun-17 13:00N 30°28' W 027°16'0 0.0 22.0
2018-Jun-17 12:30N 30°28' W 027°16'0 0.0 22.0
2018-Jun-17 12:15N 30°28' W 027°16'0 0.0 22.0
2018-Jun-17 11:45N 30°28' W 027°16'1 2.1 22.0
2018-Jun-17 11:30N 30°28' W 027°16'0 0.0 22.0
2018-Jun-17 11:15N 30°28' W 027°16'0 0.0 22.0
2018-Jun-17 10:45N 30°28' W 027°16'0 0.0 22.0
2018-Jun-17 10:30N 30°28' W 027°16'0 0.0 22.0
2018-Jun-17 10:15N 30°28' W 027°16'1 4.8 22.0
2018-Jun-17 10:00N 30°28' W 027°14'0 0.0 22.0
2018-Jun-17 09:45N 30°28' W 027°14'0 0.0 22.0
2018-Jun-17 08:45N 30°28' W 027°14'1 3.2 22.0
2018-Jun-17 08:30N 30°28' W 027°15'0 0.0 22.0
2018-Jun-17 08:15N 30°28' W 027°15'0 0.0 22.0
2018-Jun-17 07:45N 30°28' W 027°15'0 0.0 22.0
2018-Jun-17 07:30N 30°28' W 027°15'1 3.2 22.0
2018-Jun-17 07:15N 30°28' W 027°14'0 0.0 22.0
2018-Jun-17 06:15N 30°28' W 027°14'0 0.0 22.0
2018-Jun-17 06:00N 30°28' W 027°14'2 7.2 22.0
2018-Jun-17 05:45N 30°26' W 027°14'0 0.0 22.0
2018-Jun-17 05:30N 30°26' W 027°14'1 0.2 22.0
2018-Jun-17 00:00N 30°25' W 027°14'1 0.6 22.1
2018-Jun-16 23:00N 30°24' W 027°14'0 0.0 22.1
2018-Jun-16 22:30N 30°24' W 027°14'1 3.2 22.2
2018-Jun-16 22:15N 30°23' W 027°14'0 0.0 22.2
2018-Jun-16 21:30N 30°23' W 027°14'0 0.0 22.2
2018-Jun-16 21:15N 30°23' W 027°14'0 0.0 22.2
2018-Jun-16 20:45N 30°23' W 027°14'0 0.0 22.3
2018-Jun-16 20:30N 30°23' W 027°14'1 5.2 22.3
2018-Jun-16 20:15N 30°22' W 027°13'0 0.0 22.3
2018-Jun-16 19:45N 30°22' W 027°13'1 1.7 22.3
2018-Jun-16 19:00N 30°21' W 027°13'0 0.0 22.4
2018-Jun-16 18:45N 30°21' W 027°13'1 4.8 22.4
2018-Jun-16 18:30N 30°20' W 027°11'0 0.0 22.4
2018-Jun-16 17:15N 30°20' W 027°11'312.7 22.4
2018-Jun-16 17:00N 30°20' W 027°08'2 0.4 22.4
2018-Jun-16 12:45N 30°20' W 027°06'1 0.5 22.3
2018-Jun-16 11:45N 30°20' W 027°07'0 0.0 22.3
2018-Jun-16 11:15N 30°20' W 027°07'1 2.4 22.3
2018-Jun-16 11:00N 30°19' W 027°07'0 0.0 22.3
2018-Jun-16 10:15N 30°19' W 027°07'1 2.1 22.3
2018-Jun-16 10:00N 30°19' W 027°07'0 0.0 22.3
2018-Jun-16 09:00N 30°19' W 027°07'1 4.1 22.3
2018-Jun-16 08:45N 30°19' W 027°06'0 0.0 22.3
2018-Jun-16 08:30N 30°19' W 027°06'0 0.0 22.3
2018-Jun-16 08:15N 30°19' W 027°06'0 0.0 22.3
2018-Jun-16 07:30N 30°19' W 027°06'1 2.1 22.3
2018-Jun-16 07:15N 30°19' W 027°05'1 1.0 22.3
2018-Jun-16 06:45N 30°19' W 027°06'0 0.0 22.3
2018-Jun-16 06:30N 30°19' W 027°06'1 1.0 22.3
2018-Jun-16 06:00N 30°19' W 027°05'2 7.2 22.3
2018-Jun-16 05:45N 30°17' W 027°05'0 0.0 22.3
2018-Jun-16 00:15N 30°17' W 027°05'1 0.8 22.3
2018-Jun-15 23:30N 30°17' W 027°05'1 4.8 22.4
2018-Jun-15 23:15N 30°16' W 027°07'0 0.0 22.4
2018-Jun-15 22:45N 30°16' W 027°07'0 0.0 22.4
2018-Jun-15 22:30N 30°16' W 027°07'1 1.1 22.4
2018-Jun-15 21:45N 30°16' W 027°06'1 2.1 22.4
2018-Jun-15 21:30N 30°16' W 027°07'1 3.2 22.4
2018-Jun-15 21:15N 30°15' W 027°06'0 0.0 22.4
2018-Jun-15 21:00N 30°15' W 027°06'0 0.0 22.4
2018-Jun-15 20:45N 30°15' W 027°06'0 0.0 22.4
2018-Jun-15 20:30N 30°15' W 027°06'1 1.0 22.5
2018-Jun-15 20:00N 30°15' W 027°05'0 0.0 22.5
2018-Jun-15 19:30N 30°15' W 027°05'1 5.2 22.5
2018-Jun-15 19:15N 30°14' W 027°06'1 3.2 22.5
2018-Jun-15 19:00N 30°14' W 027°05'3 1.8 22.6
2018-Jun-15 17:30N 30°14' W 027°02'0 0.0 22.6
2018-Jun-15 17:15N 30°14' W 027°02'0 0.0 22.5
2018-Jun-15 15:45N 30°14' W 027°02'0 0.0 22.5
2018-Jun-15 13:00N 30°14' W 027°02'1 0.8 22.3
2018-Jun-15 12:00N 30°13' W 027°02'1 1.0 22.3
2018-Jun-15 11:30N 30°13' W 027°02'1 2.4 22.3
2018-Jun-15 11:15N 30°14' W 027°02'1 1.1 22.3
2018-Jun-15 10:30N 30°13' W 027°03'0 0.0 22.3
2018-Jun-15 10:15N 30°13' W 027°03'0 0.0 22.3
2018-Jun-15 09:30N 30°13' W 027°03'0 0.0 22.3
2018-Jun-15 09:15N 30°13' W 027°03'0 0.0 22.3
2018-Jun-15 08:45N 30°13' W 027°03'2 1.9 22.3
2018-Jun-15 07:45N 30°11' W 027°02'0 0.0 22.3
2018-Jun-15 07:30N 30°11' W 027°02'1 5.2 22.3
2018-Jun-15 07:15N 30°13' W 027°03'0 0.0 22.3
2018-Jun-15 07:00N 30°13' W 027°03'1 1.7 22.3
2018-Jun-15 06:15N 30°11' W 027°02'0 0.0 22.3
2018-Jun-15 06:00N 30°11' W 027°02'0 0.0 22.3
2018-Jun-15 05:30N 30°11' W 027°02'0 0.0 22.3
2018-Jun-15 04:30N 30°11' W 027°02'0 0.0 22.3
2018-Jun-15 04:15N 30°11' W 027°02'0 0.0 22.3
2018-Jun-14 23:45N 30°11' W 027°02'0 0.0 22.5
2018-Jun-14 23:30N 30°11' W 027°02'0 0.0 22.5
2018-Jun-14 23:00N 30°11' W 027°02'0 0.0 22.5
2018-Jun-14 22:00N 30°11' W 027°02'1 3.2 22.6
2018-Jun-14 21:45N 30°11' W 027°03'0 0.0 22.6
2018-Jun-14 21:30N 30°11' W 027°03'0 0.0 22.6
2018-Jun-14 21:00N 30°11' W 027°03'1 0.7 22.6
2018-Jun-14 20:15N 30°11' W 027°02'0 0.0 22.7
2018-Jun-14 20:00N 30°11' W 027°02'0 0.0 22.7
2018-Jun-14 19:45N 30°11' W 027°02'1 3.2 22.7
2018-Jun-14 19:30N 30°10' W 027°02'0 0.0 22.7
2018-Jun-14 19:15N 30°10' W 027°02'0 0.0 22.7
2018-Jun-14 18:15N 30°10' W 027°02'0 0.0 22.6
2018-Jun-14 17:45N 30°10' W 027°02'0 0.0 22.6
2018-Jun-14 17:30N 30°10' W 027°02'1 0.3 22.6
2018-Jun-14 16:00N 30°10' W 027°01'0 0.0 22.6
2018-Jun-14 15:45N 30°10' W 027°01'1 0.2 22.6
2018-Jun-14 12:30N 30°11' W 027°01'1 2.4 22.4
2018-Jun-14 12:15N 30°10' W 027°01'1 1.0 22.4
2018-Jun-14 11:45N 30°10' W 027°02'1 0.6 22.3
2018-Jun-14 10:30N 30°10' W 027°02'0 0.0 22.2
2018-Jun-14 10:15N 30°10' W 027°02'0 0.0 22.2
2018-Jun-14 09:45N 30°10' W 027°02'0 0.0 22.2
2018-Jun-14 09:00N 30°10' W 027°02'1 2.4 22.2
2018-Jun-14 08:45N 30°09' W 027°02'0 0.0 22.2
2018-Jun-14 08:15N 30°09' W 027°02'0 0.0 22.2
2018-Jun-14 08:00N 30°09' W 027°02'0 0.0 22.2
2018-Jun-14 07:45N 30°09' W 027°02'0 0.0 22.2
2018-Jun-14 07:30N 30°09' W 027°02'2 1.3 22.2
2018-Jun-14 06:15N 30°08' W 027°01'0 0.0 22.2
2018-Jun-14 06:00N 30°08' W 027°01'0 0.0 22.2
2018-Jun-14 04:30N 30°08' W 027°01'0 0.0 22.2
2018-Jun-14 00:00N 30°08' W 027°01'0 0.0 22.4
2018-Jun-13 23:30N 30°08' W 027°01'1 2.4 22.4
2018-Jun-13 23:15N 30°07' W 027°01'0 0.0 22.4
2018-Jun-13 22:30N 30°07' W 027°01'1 2.1 22.4
2018-Jun-13 22:15N 30°07' W 027°02'0 0.0 22.4
2018-Jun-13 22:00N 30°07' W 027°02'0 0.0 22.4
2018-Jun-13 21:45N 30°07' W 027°02'0 0.0 22.4
2018-Jun-13 21:30N 30°07' W 027°02'0 0.0 22.5
2018-Jun-13 20:30N 30°07' W 027°02'1 2.1 22.5
2018-Jun-13 20:15N 30°07' W 027°02'0 0.0 22.6
2018-Jun-13 20:00N 30°07' W 027°02'1 2.1 22.6
2018-Jun-13 19:45N 30°07' W 027°02'0 0.0 22.6
2018-Jun-13 18:45N 30°07' W 027°02'1 1.2 22.7
2018-Jun-13 18:15N 30°07' W 027°02'0 0.0 22.7
2018-Jun-13 17:45N 30°07' W 027°02'1 0.7 22.6
2018-Jun-13 16:15N 30°07' W 027°01'0 0.0 22.6
2018-Jun-13 16:00N 30°07' W 027°01'1 0.2 22.6
2018-Jun-13 12:45N 30°07' W 027°01'0 0.0 22.4
2018-Jun-13 12:15N 30°07' W 027°01'1 2.1 22.3
2018-Jun-13 12:00N 30°07' W 027°01'0 0.0 22.3
2018-Jun-13 11:15N 30°07' W 027°01'1 2.1 22.3
2018-Jun-13 11:00N 30°07' W 027°01'0 0.0 22.3
2018-Jun-13 10:45N 30°07' W 027°01'1 3.2 22.3
2018-Jun-13 10:30N 30°06' W 027°02'1 3.2 22.3
2018-Jun-13 10:15N 30°07' W 027°01'1 0.6 22.3
2018-Jun-13 09:00N 30°06' W 027°02'0 0.0 22.3
2018-Jun-13 08:45N 30°06' W 027°02'1 3.2 22.3
2018-Jun-13 08:30N 30°05' W 027°02'0 0.0 22.3
2018-Jun-13 08:15N 30°05' W 027°02'0 0.0 22.3
2018-Jun-13 08:00N 30°05' W 027°02'2 1.3 22.3
2018-Jun-13 06:30N 30°04' W 027°01'0 0.0 22.3
2018-Jun-13 06:15N 30°04' W 027°01'0 0.0 22.3
2018-Jun-13 04:45N 30°04' W 027°01'0 0.0 22.3
2018-Jun-13 00:30N 30°04' W 027°01'0 0.0 22.4
2018-Jun-13 00:15N 30°04' W 027°01'0 0.0 22.4
2018-Jun-12 23:45N 30°04' W 027°01'0 0.0 22.4
2018-Jun-12 23:30N 30°04' W 027°01'0 0.0 22.4
2018-Jun-12 22:45N 30°04' W 027°01'0 0.0 22.4
2018-Jun-12 22:30N 30°04' W 027°01'0 0.0 22.4
2018-Jun-12 22:15N 30°04' W 027°01'1 2.4 22.4
2018-Jun-12 22:00N 30°05' W 027°01'1 0.6 22.4
2018-Jun-12 21:00N 30°04' W 027°01'0 0.0 22.5
2018-Jun-12 20:45N 30°04' W 027°01'0 0.0 22.5
2018-Jun-12 20:30N 30°04' W 027°01'1 0.6 22.5
2018-Jun-12 19:30N 30°05' W 027°01'0 0.0 22.5
2018-Jun-12 19:15N 30°05' W 027°01'1 0.8 22.5
2018-Jun-12 18:30N 30°04' W 027°01'0 0.0 22.6
2018-Jun-12 18:00N 30°04' W 027°01'0 0.0 22.6
2018-Jun-12 17:45N 30°04' W 027°01'0 0.0 22.6
2018-Jun-12 16:15N 30°04' W 027°01'0 0.0 22.5
2018-Jun-12 13:15N 30°04' W 027°01'0 0.0 22.4
2018-Jun-12 13:00N 30°04' W 027°01'0 0.0 22.4
2018-Jun-12 12:30N 30°04' W 027°01'1 2.4 22.4
2018-Jun-12 12:15N 30°05' W 027°01'0 0.0 22.4
2018-Jun-12 11:30N 30°05' W 027°01'1 2.1 22.3
2018-Jun-12 11:15N 30°05' W 027°01'0 0.0 22.3
2018-Jun-12 11:00N 30°05' W 027°01'1 2.4 22.3
2018-Jun-12 10:45N 30°04' W 027°01'0 0.0 22.3
2018-Jun-12 09:45N 30°04' W 027°01'1 2.4 22.3
2018-Jun-12 09:15N 30°04' W 027°02'0 0.0 22.3
2018-Jun-12 09:00N 30°04' W 027°02'0 0.0 22.3
2018-Jun-12 08:45N 30°04' W 027°02'0 0.0 22.3
2018-Jun-12 07:15N 30°04' W 027°02'0 0.0 22.3
2018-Jun-12 07:00N 30°04' W 027°02'0 0.0 22.3
2018-Jun-12 06:45N 30°04' W 027°02'1 2.4 22.3
2018-Jun-12 06:30N 30°03' W 027°02'2 1.4 22.3
2018-Jun-12 05:00N 30°03' W 027°00'0 0.0 22.3
2018-Jun-12 04:45N 30°03' W 027°00'0 0.0 22.3
2018-Jun-12 00:15N 30°03' W 027°00'1 3.2 22.4
2018-Jun-12 00:00N 30°02' W 027°01'0 0.0 22.4
2018-Jun-11 23:15N 30°02' W 027°01'1 2.1 22.4
2018-Jun-11 23:00N 30°02' W 027°00'0 0.0 22.4
2018-Jun-11 22:30N 30°02' W 027°00'1 2.4 22.4
2018-Jun-11 22:15N 30°02' W 027°00'1 1.1 22.4
2018-Jun-11 21:30N 30°02' W 027°01'0 0.0 22.5
2018-Jun-11 21:15N 30°02' W 027°01'1 1.2 22.5
2018-Jun-11 20:45N 30°03' W 027°01'1 0.8 22.5
2018-Jun-11 20:00N 30°02' W 027°01'1 2.4 22.6
2018-Jun-11 19:45N 30°03' W 027°01'1 0.8 22.6
2018-Jun-11 19:00N 30°02' W 027°01'0 0.0 22.7
2018-Jun-11 18:45N 30°02' W 027°01'0 0.0 22.7
2018-Jun-11 18:15N 30°02' W 027°01'0 0.0 22.7
2018-Jun-11 18:00N 30°02' W 027°01'1 0.5 22.8
2018-Jun-11 16:30N 30°03' W 027°00'1 0.2 22.8
2018-Jun-11 12:45N 30°04' W 027°01'0 0.0 22.4
2018-Jun-11 12:00N 30°04' W 027°01'1 2.1 22.3
2018-Jun-11 11:45N 30°04' W 027°00'1 1.0 22.3
2018-Jun-11 11:15N 30°04' W 027°01'1 2.4 22.3
2018-Jun-11 11:00N 30°04' W 027°01'1 0.8 22.3
2018-Jun-11 10:15N 30°04' W 027°01'0 0.0 22.3
2018-Jun-11 10:00N 30°04' W 027°01'1 2.1 22.3
2018-Jun-11 09:30N 30°04' W 027°02'0 0.0 22.3
2018-Jun-11 09:15N 30°04' W 027°02'0 0.0 22.3
2018-Jun-11 07:45N 30°04' W 027°02'0 0.0 22.3
2018-Jun-11 07:30N 30°04' W 027°02'0 0.0 22.2
2018-Jun-11 07:00N 30°04' W 027°02'0 0.0 22.3
2018-Jun-11 06:45N 30°04' W 027°02'0 0.0 22.3
2018-Jun-11 06:00N 30°04' W 027°02'0 0.0 22.3
2018-Jun-11 05:45N 30°04' W 027°02'1 1.6 22.3
2018-Jun-11 05:15N 30°03' W 027°02'1 4.8 22.3
2018-Jun-11 05:00N 30°02' W 027°01'0 0.0 22.3
2018-Jun-11 00:30N 30°02' W 027°01'1 0.6 22.3
2018-Jun-10 23:30N 30°02' W 027°01'0 0.0 22.3
2018-Jun-10 23:15N 30°02' W 027°01'1 1.6 22.4
2018-Jun-10 22:45N 30°02' W 027°01'0 0.0 22.4
2018-Jun-10 22:30N 30°02' W 027°01'1 1.1 22.4
2018-Jun-10 21:45N 30°03' W 027°01'0 0.0 22.4
2018-Jun-10 21:00N 30°03' W 027°01'0 0.0 22.4
2018-Jun-10 20:30N 30°03' W 027°01'0 0.0 22.4
2018-Jun-10 20:15N 30°03' W 027°01'0 0.0 22.4
2018-Jun-10 19:30N 30°03' W 027°01'0 0.0 22.6
2018-Jun-10 19:15N 30°03' W 027°01'0 0.0 22.6
2018-Jun-10 18:45N 30°03' W 027°01'0 0.0 22.6
2018-Jun-10 18:30N 30°03' W 027°01'0 0.0 22.6
2018-Jun-10 18:15N 30°03' W 027°01'1 0.3 22.6
2018-Jun-10 16:45N 30°03' W 027°02'1 4.8 22.8
2018-Jun-10 16:30N 30°04' W 027°01'   22.7
Track history (hours):
 
Tides and Currents Weather Stations Pressure Air Temp Water Temp Dewpoint Dewpoint Depression Visibility Wind Speed Wind Dir Waves Ship Positions

Yuehuilaiyu43555

Last reported at 2018-Jun-20 16:30 UTC. Time now 2018-Jun-20 17:11 UTC.
Position N 30°36' W 027°44'.

Length 21 m.

Type: Fishing. MMSI: 412466967.

Water temperature 22.5 ° C

Date/timePositionNaut miles runAvg speedWind from/ knotsBaromVisibWave heightAir tempDewpointWater temp
2018-Jun-20 16:30N 30°36' W 027°44'0 0.0 22.5
2018-Jun-20 16:15N 30°36' W 027°44'2 0.7 22.5
2018-Jun-20 13:00N 30°35' W 027°42'1 0.6 22.4
2018-Jun-20 12:00N 30°34' W 027°42'0 0.0 22.4
2018-Jun-20 11:30N 30°34' W 027°42'0 0.0 22.3
2018-Jun-20 11:15N 30°34' W 027°42'1 4.1 22.3
2018-Jun-20 11:00N 30°34' W 027°41'0 0.0 22.3
2018-Jun-20 10:15N 30°34' W 027°41'0 0.0 22.3
2018-Jun-20 09:30N 30°34' W 027°41'1 4.1 22.3
2018-Jun-20 09:15N 30°34' W 027°40'0 0.0 22.3
2018-Jun-20 08:45N 30°34' W 027°40'0 0.0 22.3
2018-Jun-20 08:00N 30°34' W 027°40'1 2.1 22.3
2018-Jun-20 07:45N 30°34' W 027°39'3 2.9 22.3
2018-Jun-20 06:45N 30°37' W 027°37'2 3.7 22.3
2018-Jun-20 06:15N 30°35' W 027°38'2 1.5 22.3
2018-Jun-20 05:00N 30°37' W 027°37'1 0.1 22.3
2018-Jun-19 23:45N 30°36' W 027°37'1 2.4 22.4
2018-Jun-19 23:30N 30°37' W 027°37'1 1.0 22.4
2018-Jun-19 23:00N 30°37' W 027°37'1 2.4 22.4
2018-Jun-19 22:45N 30°36' W 027°37'0 0.0 22.4
2018-Jun-19 22:30N 30°36' W 027°37'1 1.0 22.4
2018-Jun-19 22:00N 30°36' W 027°37'0 0.0 22.4
2018-Jun-19 21:15N 30°36' W 027°37'0 0.0 22.4
2018-Jun-19 21:00N 30°36' W 027°37'1 3.2 22.4
2018-Jun-19 20:45N 30°35' W 027°37'0 0.0 22.4
2018-Jun-19 20:30N 30°35' W 027°37'1 0.5 22.4
2018-Jun-19 19:00N 30°35' W 027°36'1 3.2 22.5
2018-Jun-19 18:45N 30°35' W 027°37'1 3.2 22.5
2018-Jun-19 18:30N 30°35' W 027°36'1 2.1 22.5
2018-Jun-19 18:15N 30°35' W 027°35'0 0.0 22.5
2018-Jun-19 16:45N 30°35' W 027°35'2 8.6 22.5
2018-Jun-19 16:30N 30°34' W 027°33'0 0.0 22.5
2018-Jun-19 12:30N 30°34' W 027°33'0 0.0 22.3
2018-Jun-19 12:15N 30°34' W 027°33'1 1.0 22.3
2018-Jun-19 11:45N 30°34' W 027°32'0 0.0 22.3
2018-Jun-19 11:30N 30°34' W 027°32'1 2.1 22.3
2018-Jun-19 11:15N 30°34' W 027°32'0 0.0 22.3
2018-Jun-19 11:00N 30°34' W 027°32'1 2.1 22.3
2018-Jun-19 10:45N 30°34' W 027°31'0 0.0 22.3
2018-Jun-19 10:30N 30°34' W 027°31'0 0.0 22.3
2018-Jun-19 10:00N 30°34' W 027°31'1 1.2 22.3
2018-Jun-19 09:30N 30°34' W 027°31'0 0.0 22.2
2018-Jun-19 09:15N 30°34' W 027°31'0 0.0 22.2
2018-Jun-19 08:30N 30°34' W 027°31'1 4.8 22.2
2018-Jun-19 08:15N 30°34' W 027°30'0 0.0 22.2
2018-Jun-19 07:45N 30°34' W 027°30'0 0.0 22.2
2018-Jun-19 07:30N 30°34' W 027°30'0 0.0 22.2
2018-Jun-19 07:00N 30°34' W 027°30'1 2.1 22.2
2018-Jun-19 06:45N 30°34' W 027°29'1 0.5 22.2
2018-Jun-19 05:15N 30°35' W 027°29'1 0.1 22.3
2018-Jun-19 00:00N 30°35' W 027°28'1 0.8 22.3
2018-Jun-18 23:15N 30°34' W 027°28'0 0.0 22.3
2018-Jun-18 22:45N 30°34' W 027°28'0 0.0 22.3
2018-Jun-18 22:30N 30°34' W 027°28'1 2.1 22.3
2018-Jun-18 22:15N 30°34' W 027°29'0 0.0 22.3
2018-Jun-18 21:45N 30°34' W 027°29'0 0.0 22.3
2018-Jun-18 21:30N 30°34' W 027°29'0 0.0 22.3
2018-Jun-18 21:15N 30°34' W 027°29'1 3.2 22.3
2018-Jun-18 21:00N 30°34' W 027°28'0 0.0 22.3
2018-Jun-18 19:45N 30°34' W 027°28'1 4.8 22.3
2018-Jun-18 19:30N 30°33' W 027°27'1 2.1 22.3
2018-Jun-18 19:15N 30°33' W 027°28'1 1.6 22.3
2018-Jun-18 18:30N 30°32' W 027°26'2 1.0 22.3
2018-Jun-18 17:00N 30°32' W 027°25'0 0.0 22.3
2018-Jun-18 16:45N 30°32' W 027°25'1 0.1 22.3
2018-Jun-18 12:45N 30°32' W 027°24'0 0.0 22.2
2018-Jun-18 12:00N 30°32' W 027°24'0 0.0 22.1
2018-Jun-18 11:30N 30°32' W 027°24'0 0.0 22.1
2018-Jun-18 11:15N 30°32' W 027°24'1 2.1 22.1
2018-Jun-18 11:00N 30°32' W 027°23'0 0.0 22.1
2018-Jun-18 10:30N 30°32' W 027°23'1 2.4 22.1
2018-Jun-18 10:15N 30°32' W 027°23'1 1.6 22.1
2018-Jun-18 09:45N 30°32' W 027°24'0 0.0 22.0
2018-Jun-18 09:30N 30°32' W 027°24'1 2.4 22.0
2018-Jun-18 09:00N 30°32' W 027°23'0 0.0 22.0
2018-Jun-18 08:45N 30°32' W 027°23'0 0.0 22.0
2018-Jun-18 08:15N 30°32' W 027°23'1 2.4 22.0
2018-Jun-18 08:00N 30°32' W 027°23'1 0.7 22.0
2018-Jun-18 07:15N 30°32' W 027°22'1 3.2 22.0
2018-Jun-18 07:00N 30°32' W 027°23'0 0.0 22.0
2018-Jun-18 05:30N 30°32' W 027°23'0 0.0 22.0
2018-Jun-18 05:15N 30°32' W 027°23'0 0.0 22.1
2018-Jun-18 00:30N 30°32' W 027°23'1 4.8 22.1
2018-Jun-18 00:15N 30°31' W 027°22'1 1.6 22.1
2018-Jun-17 23:45N 30°32' W 027°22'1 4.8 22.1
2018-Jun-17 23:30N 30°31' W 027°22'0 0.0 22.1
2018-Jun-17 23:00N 30°31' W 027°22'0 0.0 22.1
2018-Jun-17 22:45N 30°31' W 027°22'0 0.0 22.1
2018-Jun-17 22:30N 30°31' W 027°22'1 1.2 22.1
2018-Jun-17 22:00N 30°30' W 027°22'1 4.8 22.1
2018-Jun-17 21:45N 30°31' W 027°21'0 0.0 22.1
2018-Jun-17 21:30N 30°31' W 027°21'1 5.2 22.1
2018-Jun-17 21:15N 30°29' W 027°22'0 0.0 22.1
2018-Jun-17 21:00N 30°29' W 027°22'0 0.0 22.1
2018-Jun-17 20:15N 30°29' W 027°22'0 0.0 22.2
2018-Jun-17 20:00N 30°29' W 027°22'1 3.2 22.2
2018-Jun-17 19:45N 30°29' W 027°21'0 0.0 22.2
2018-Jun-17 19:30N 30°29' W 027°21'2 2.1 22.2
2018-Jun-17 18:45N 30°29' W 027°19'0 0.0 22.2
2018-Jun-17 18:30N 30°29' W 027°19'1 3.2 22.2
2018-Jun-17 18:15N 30°28' W 027°19'1 3.2 22.2
2018-Jun-17 18:00N 30°29' W 027°19'2 1.7 22.2
2018-Jun-17 17:00N 30°28' W 027°17'1 0.3 22.2
2018-Jun-17 13:00N 30°28' W 027°16'0 0.0 22.0
2018-Jun-17 12:30N 30°28' W 027°16'0 0.0 22.0
2018-Jun-17 12:15N 30°28' W 027°16'0 0.0 22.0
2018-Jun-17 11:45N 30°28' W 027°16'1 2.1 22.0
2018-Jun-17 11:30N 30°28' W 027°16'0 0.0 22.0
2018-Jun-17 11:15N 30°28' W 027°16'0 0.0 22.0
2018-Jun-17 10:45N 30°28' W 027°16'0 0.0 22.0
2018-Jun-17 10:30N 30°28' W 027°16'0 0.0 22.0
2018-Jun-17 10:15N 30°28' W 027°16'1 4.8 22.0
2018-Jun-17 10:00N 30°28' W 027°14'0 0.0 22.0
2018-Jun-17 09:45N 30°28' W 027°14'0 0.0 22.0
2018-Jun-17 08:45N 30°28' W 027°14'1 3.2 22.0
2018-Jun-17 08:30N 30°28' W 027°15'0 0.0 22.0
2018-Jun-17 08:15N 30°28' W 027°15'0 0.0 22.0
2018-Jun-17 07:45N 30°28' W 027°15'0 0.0 22.0
2018-Jun-17 07:30N 30°28' W 027°15'1 3.2 22.0
2018-Jun-17 07:15N 30°28' W 027°14'0 0.0 22.0
2018-Jun-17 06:15N 30°28' W 027°14'0 0.0 22.0
2018-Jun-17 06:00N 30°28' W 027°14'2 7.2 22.0
2018-Jun-17 05:45N 30°26' W 027°14'0 0.0 22.0
2018-Jun-17 05:30N 30°26' W 027°14'1 0.2 22.0
2018-Jun-17 00:00N 30°25' W 027°14'1 0.6 22.1
2018-Jun-16 23:00N 30°24' W 027°14'0 0.0 22.1
2018-Jun-16 22:30N 30°24' W 027°14'1 3.2 22.2
2018-Jun-16 22:15N 30°23' W 027°14'0 0.0 22.2
2018-Jun-16 21:30N 30°23' W 027°14'0 0.0 22.2
2018-Jun-16 21:15N 30°23' W 027°14'0 0.0 22.2
2018-Jun-16 20:45N 30°23' W 027°14'0 0.0 22.3
2018-Jun-16 20:30N 30°23' W 027°14'1 5.2 22.3
2018-Jun-16 20:15N 30°22' W 027°13'0 0.0 22.3
2018-Jun-16 19:45N 30°22' W 027°13'1 1.7 22.3
2018-Jun-16 19:00N 30°21' W 027°13'0 0.0 22.4
2018-Jun-16 18:45N 30°21' W 027°13'1 4.8 22.4
2018-Jun-16 18:30N 30°20' W 027°11'0 0.0 22.4
2018-Jun-16 17:15N 30°20' W 027°11'312.7 22.4
2018-Jun-16 17:00N 30°20' W 027°08'2 0.4 22.4
2018-Jun-16 12:45N 30°20' W 027°06'1 0.5 22.3
2018-Jun-16 11:45N 30°20' W 027°07'0 0.0 22.3
2018-Jun-16 11:15N 30°20' W 027°07'1 2.4 22.3
2018-Jun-16 11:00N 30°19' W 027°07'0 0.0 22.3
2018-Jun-16 10:15N 30°19' W 027°07'1 2.1 22.3
2018-Jun-16 10:00N 30°19' W 027°07'0 0.0 22.3
2018-Jun-16 09:00N 30°19' W 027°07'1 4.1 22.3
2018-Jun-16 08:45N 30°19' W 027°06'0 0.0 22.3
2018-Jun-16 08:30N 30°19' W 027°06'0 0.0 22.3
2018-Jun-16 08:15N 30°19' W 027°06'0 0.0 22.3
2018-Jun-16 07:30N 30°19' W 027°06'1 2.1 22.3
2018-Jun-16 07:15N 30°19' W 027°05'1 1.0 22.3
2018-Jun-16 06:45N 30°19' W 027°06'0 0.0 22.3
2018-Jun-16 06:30N 30°19' W 027°06'1 1.0 22.3
2018-Jun-16 06:00N 30°19' W 027°05'2 7.2 22.3
2018-Jun-16 05:45N 30°17' W 027°05'0 0.0 22.3
2018-Jun-16 00:15N 30°17' W 027°05'1 0.8 22.3
2018-Jun-15 23:30N 30°17' W 027°05'1 4.8 22.4
2018-Jun-15 23:15N 30°16' W 027°07'0 0.0 22.4
2018-Jun-15 22:45N 30°16' W 027°07'0 0.0 22.4
2018-Jun-15 22:30N 30°16' W 027°07'1 1.1 22.4
2018-Jun-15 21:45N 30°16' W 027°06'1 2.1 22.4
2018-Jun-15 21:30N 30°16' W 027°07'1 3.2 22.4
2018-Jun-15 21:15N 30°15' W 027°06'0 0.0 22.4
2018-Jun-15 21:00N 30°15' W 027°06'0 0.0 22.4
2018-Jun-15 20:45N 30°15' W 027°06'0 0.0 22.4
2018-Jun-15 20:30N 30°15' W 027°06'1 1.0 22.5
2018-Jun-15 20:00N 30°15' W 027°05'0 0.0 22.5
2018-Jun-15 19:30N 30°15' W 027°05'1 5.2 22.5
2018-Jun-15 19:15N 30°14' W 027°06'1 3.2 22.5
2018-Jun-15 19:00N 30°14' W 027°05'3 1.8 22.6
2018-Jun-15 17:30N 30°14' W 027°02'0 0.0 22.6
2018-Jun-15 17:15N 30°14' W 027°02'0 0.0 22.5
2018-Jun-15 15:45N 30°14' W 027°02'0 0.0 22.5
2018-Jun-15 13:00N 30°14' W 027°02'1 0.8 22.3
2018-Jun-15 12:00N 30°13' W 027°02'1 1.0 22.3
2018-Jun-15 11:30N 30°13' W 027°02'1 2.4 22.3
2018-Jun-15 11:15N 30°14' W 027°02'1 1.1 22.3
2018-Jun-15 10:30N 30°13' W 027°03'0 0.0 22.3
2018-Jun-15 10:15N 30°13' W 027°03'0 0.0 22.3
2018-Jun-15 09:30N 30°13' W 027°03'0 0.0 22.3
2018-Jun-15 09:15N 30°13' W 027°03'0 0.0 22.3
2018-Jun-15 08:45N 30°13' W 027°03'2 1.9 22.3
2018-Jun-15 07:45N 30°11' W 027°02'0 0.0 22.3
2018-Jun-15 07:30N 30°11' W 027°02'1 5.2 22.3
2018-Jun-15 07:15N 30°13' W 027°03'0 0.0 22.3
2018-Jun-15 07:00N 30°13' W 027°03'1 1.7 22.3
2018-Jun-15 06:15N 30°11' W 027°02'0 0.0 22.3
2018-Jun-15 06:00N 30°11' W 027°02'0 0.0 22.3
2018-Jun-15 05:30N 30°11' W 027°02'0 0.0 22.3
2018-Jun-15 04:30N 30°11' W 027°02'0 0.0 22.3
2018-Jun-15 04:15N 30°11' W 027°02'0 0.0 22.3
2018-Jun-14 23:45N 30°11' W 027°02'0 0.0 22.5
2018-Jun-14 23:30N 30°11' W 027°02'0 0.0 22.5
2018-Jun-14 23:00N 30°11' W 027°02'0 0.0 22.5
2018-Jun-14 22:00N 30°11' W 027°02'1 3.2 22.6
2018-Jun-14 21:45N 30°11' W 027°03'0 0.0 22.6
2018-Jun-14 21:30N 30°11' W 027°03'0 0.0 22.6
2018-Jun-14 21:00N 30°11' W 027°03'1 0.7 22.6
2018-Jun-14 20:15N 30°11' W 027°02'0 0.0 22.7
2018-Jun-14 20:00N 30°11' W 027°02'0 0.0 22.7
2018-Jun-14 19:45N 30°11' W 027°02'1 3.2 22.7
2018-Jun-14 19:30N 30°10' W 027°02'0 0.0 22.7
2018-Jun-14 19:15N 30°10' W 027°02'0 0.0 22.7
2018-Jun-14 18:15N 30°10' W 027°02'0 0.0 22.6
2018-Jun-14 17:45N 30°10' W 027°02'0 0.0 22.6
2018-Jun-14 17:30N 30°10' W 027°02'1 0.3 22.6
2018-Jun-14 16:00N 30°10' W 027°01'0 0.0 22.6
2018-Jun-14 15:45N 30°10' W 027°01'1 0.2 22.6
2018-Jun-14 12:30N 30°11' W 027°01'1 2.4 22.4
2018-Jun-14 12:15N 30°10' W 027°01'1 1.0 22.4
2018-Jun-14 11:45N 30°10' W 027°02'1 0.6 22.3
2018-Jun-14 10:30N 30°10' W 027°02'0 0.0 22.2
2018-Jun-14 10:15N 30°10' W 027°02'0 0.0 22.2
2018-Jun-14 09:45N 30°10' W 027°02'0 0.0 22.2
2018-Jun-14 09:00N 30°10' W 027°02'1 2.4 22.2
2018-Jun-14 08:45N 30°09' W 027°02'0 0.0 22.2
2018-Jun-14 08:15N 30°09' W 027°02'0 0.0 22.2
2018-Jun-14 08:00N 30°09' W 027°02'0 0.0 22.2
2018-Jun-14 07:45N 30°09' W 027°02'0 0.0 22.2
2018-Jun-14 07:30N 30°09' W 027°02'2 1.3 22.2
2018-Jun-14 06:15N 30°08' W 027°01'0 0.0 22.2
2018-Jun-14 06:00N 30°08' W 027°01'0 0.0 22.2
2018-Jun-14 04:30N 30°08' W 027°01'0 0.0 22.2
2018-Jun-14 00:00N 30°08' W 027°01'0 0.0 22.4
2018-Jun-13 23:30N 30°08' W 027°01'1 2.4 22.4
2018-Jun-13 23:15N 30°07' W 027°01'0 0.0 22.4
2018-Jun-13 22:30N 30°07' W 027°01'1 2.1 22.4
2018-Jun-13 22:15N 30°07' W 027°02'0 0.0 22.4
2018-Jun-13 22:00N 30°07' W 027°02'0 0.0 22.4
2018-Jun-13 21:45N 30°07' W 027°02'0 0.0 22.4
2018-Jun-13 21:30N 30°07' W 027°02'0 0.0 22.5
2018-Jun-13 20:30N 30°07' W 027°02'1 2.1 22.5
2018-Jun-13 20:15N 30°07' W 027°02'0 0.0 22.6
2018-Jun-13 20:00N 30°07' W 027°02'1 2.1 22.6
2018-Jun-13 19:45N 30°07' W 027°02'0 0.0 22.6
2018-Jun-13 18:45N 30°07' W 027°02'1 1.2 22.7
2018-Jun-13 18:15N 30°07' W 027°02'0 0.0 22.7
2018-Jun-13 17:45N 30°07' W 027°02'1 0.7 22.6
2018-Jun-13 16:15N 30°07' W 027°01'0 0.0 22.6
2018-Jun-13 16:00N 30°07' W 027°01'1 0.2 22.6
2018-Jun-13 12:45N 30°07' W 027°01'0 0.0 22.4
2018-Jun-13 12:15N 30°07' W 027°01'1 2.1 22.3
2018-Jun-13 12:00N 30°07' W 027°01'0 0.0 22.3
2018-Jun-13 11:15N 30°07' W 027°01'1 2.1 22.3
2018-Jun-13 11:00N 30°07' W 027°01'0 0.0 22.3
2018-Jun-13 10:45N 30°07' W 027°01'1 3.2 22.3
2018-Jun-13 10:30N 30°06' W 027°02'1 3.2 22.3
2018-Jun-13 10:15N 30°07' W 027°01'1 0.6 22.3
2018-Jun-13 09:00N 30°06' W 027°02'0 0.0 22.3
2018-Jun-13 08:45N 30°06' W 027°02'1 3.2 22.3
2018-Jun-13 08:30N 30°05' W 027°02'0 0.0 22.3
2018-Jun-13 08:15N 30°05' W 027°02'0 0.0 22.3
2018-Jun-13 08:00N 30°05' W 027°02'2 1.3 22.3
2018-Jun-13 06:30N 30°04' W 027°01'0 0.0 22.3
2018-Jun-13 06:15N 30°04' W 027°01'0 0.0 22.3
2018-Jun-13 04:45N 30°04' W 027°01'0 0.0 22.3
2018-Jun-13 00:30N 30°04' W 027°01'0 0.0 22.4
2018-Jun-13 00:15N 30°04' W 027°01'0 0.0 22.4
2018-Jun-12 23:45N 30°04' W 027°01'0 0.0 22.4
2018-Jun-12 23:30N 30°04' W 027°01'0 0.0 22.4
2018-Jun-12 22:45N 30°04' W 027°01'0 0.0 22.4
2018-Jun-12 22:30N 30°04' W 027°01'0 0.0 22.4
2018-Jun-12 22:15N 30°04' W 027°01'1 2.4 22.4
2018-Jun-12 22:00N 30°05' W 027°01'1 0.6 22.4
2018-Jun-12 21:00N 30°04' W 027°01'0 0.0 22.5
2018-Jun-12 20:45N 30°04' W 027°01'0 0.0 22.5
2018-Jun-12 20:30N 30°04' W 027°01'1 0.6 22.5
2018-Jun-12 19:30N 30°05' W 027°01'0 0.0 22.5
2018-Jun-12 19:15N 30°05' W 027°01'1 0.8 22.5
2018-Jun-12 18:30N 30°04' W 027°01'0 0.0 22.6
2018-Jun-12 18:00N 30°04' W 027°01'0 0.0 22.6
2018-Jun-12 17:45N 30°04' W 027°01'0 0.0 22.6
2018-Jun-12 16:15N 30°04' W 027°01'0 0.0 22.5
2018-Jun-12 13:15N 30°04' W 027°01'0 0.0 22.4
2018-Jun-12 13:00N 30°04' W 027°01'0 0.0 22.4
2018-Jun-12 12:30N 30°04' W 027°01'1 2.4 22.4
2018-Jun-12 12:15N 30°05' W 027°01'0 0.0 22.4
2018-Jun-12 11:30N 30°05' W 027°01'1 2.1 22.3
2018-Jun-12 11:15N 30°05' W 027°01'0 0.0 22.3
2018-Jun-12 11:00N 30°05' W 027°01'1 2.4 22.3
2018-Jun-12 10:45N 30°04' W 027°01'0 0.0 22.3
2018-Jun-12 09:45N 30°04' W 027°01'1 2.4 22.3
2018-Jun-12 09:15N 30°04' W 027°02'0 0.0 22.3
2018-Jun-12 09:00N 30°04' W 027°02'0 0.0 22.3
2018-Jun-12 08:45N 30°04' W 027°02'0 0.0 22.3
2018-Jun-12 07:15N 30°04' W 027°02'0 0.0 22.3
2018-Jun-12 07:00N 30°04' W 027°02'0 0.0 22.3
2018-Jun-12 06:45N 30°04' W 027°02'1 2.4 22.3
2018-Jun-12 06:30N 30°03' W 027°02'2 1.4 22.3
2018-Jun-12 05:00N 30°03' W 027°00'0 0.0 22.3
2018-Jun-12 04:45N 30°03' W 027°00'0 0.0 22.3
2018-Jun-12 00:15N 30°03' W 027°00'1 3.2 22.4
2018-Jun-12 00:00N 30°02' W 027°01'0 0.0 22.4
2018-Jun-11 23:15N 30°02' W 027°01'1 2.1 22.4
2018-Jun-11 23:00N 30°02' W 027°00'0 0.0 22.4
2018-Jun-11 22:30N 30°02' W 027°00'1 2.4 22.4
2018-Jun-11 22:15N 30°02' W 027°00'1 1.1 22.4
2018-Jun-11 21:30N 30°02' W 027°01'0 0.0 22.5
2018-Jun-11 21:15N 30°02' W 027°01'1 1.2 22.5
2018-Jun-11 20:45N 30°03' W 027°01'1 0.8 22.5
2018-Jun-11 20:00N 30°02' W 027°01'1 2.4 22.6
2018-Jun-11 19:45N 30°03' W 027°01'1 0.8 22.6
2018-Jun-11 19:00N 30°02' W 027°01'0 0.0 22.7
2018-Jun-11 18:45N 30°02' W 027°01'0 0.0 22.7
2018-Jun-11 18:15N 30°02' W 027°01'0 0.0 22.7
2018-Jun-11 18:00N 30°02' W 027°01'1 0.5 22.8
2018-Jun-11 16:30N 30°03' W 027°00'1 0.2 22.8
2018-Jun-11 12:45N 30°04' W 027°01'0 0.0 22.4
2018-Jun-11 12:00N 30°04' W 027°01'1 2.1 22.3
2018-Jun-11 11:45N 30°04' W 027°00'1 1.0 22.3
2018-Jun-11 11:15N 30°04' W 027°01'1 2.4 22.3
2018-Jun-11 11:00N 30°04' W 027°01'1 0.8 22.3
2018-Jun-11 10:15N 30°04' W 027°01'0 0.0 22.3
2018-Jun-11 10:00N 30°04' W 027°01'1 2.1 22.3
2018-Jun-11 09:30N 30°04' W 027°02'0 0.0 22.3
2018-Jun-11 09:15N 30°04' W 027°02'0 0.0 22.3
2018-Jun-11 07:45N 30°04' W 027°02'0 0.0 22.3
2018-Jun-11 07:30N 30°04' W 027°02'0 0.0 22.2
2018-Jun-11 07:00N 30°04' W 027°02'0 0.0 22.3
2018-Jun-11 06:45N 30°04' W 027°02'0 0.0 22.3
2018-Jun-11 06:00N 30°04' W 027°02'0 0.0 22.3
2018-Jun-11 05:45N 30°04' W 027°02'1 1.6 22.3
2018-Jun-11 05:15N 30°03' W 027°02'1 4.8 22.3
2018-Jun-11 05:00N 30°02' W 027°01'0 0.0 22.3
2018-Jun-11 00:30N 30°02' W 027°01'1 0.6 22.3
2018-Jun-10 23:30N 30°02' W 027°01'0 0.0 22.3
2018-Jun-10 23:15N 30°02' W 027°01'1 1.6 22.4
2018-Jun-10 22:45N 30°02' W 027°01'0 0.0 22.4
2018-Jun-10 22:30N 30°02' W 027°01'1 1.1 22.4
2018-Jun-10 21:45N 30°03' W 027°01'0 0.0 22.4
2018-Jun-10 21:00N 30°03' W 027°01'0 0.0 22.4
2018-Jun-10 20:30N 30°03' W 027°01'0 0.0 22.4
2018-Jun-10 20:15N 30°03' W 027°01'0 0.0 22.4
2018-Jun-10 19:30N 30°03' W 027°01'0 0.0 22.6
2018-Jun-10 19:15N 30°03' W 027°01'0 0.0 22.6
2018-Jun-10 18:45N 30°03' W 027°01'0 0.0 22.6
2018-Jun-10 18:30N 30°03' W 027°01'0 0.0 22.6
2018-Jun-10 18:15N 30°03' W 027°01'1 0.3 22.6
2018-Jun-10 16:45N 30°03' W 027°02'1 4.8 22.8
2018-Jun-10 16:30N 30°04' W 027°01'   22.7

Dump ship's entire track history